Time;durP1;ratioP1;P1;durP2;ratioP2;P2;SDS_P1;SDS_P2;PMS_P1;PMS_P2;Temp;Humidity;BMP_temperature;BMP_pressure;BME280_temperature;BME280_humidity;BME280_pressure;Samples;Min_cycle;Max_cycle;Signal;HPM_P1;HPM_P2
2021/12/07 00:00:24;;;;;;;22.03;11.10;;;6.50;58.50;;;;;;5024664;28;20807;-83
2021/12/07 00:02:51;;;;;;;21.87;11.03;;;6.80;58.60;;;;;;5044858;28;21004;-85
2021/12/07 00:05:19;;;;;;;15.13;9.37;;;7.10;58.20;;;;;;5041729;28;20985;-85
2021/12/07 00:07:47;;;;;;;18.67;10.33;;;7.30;57.60;;;;;;5033825;28;20952;-86
2021/12/07 00:10:15;;;;;;;18.77;10.30;;;7.30;56.90;;;;;;5043492;28;20474;-86
2021/12/07 00:12:45;;;;;;;16.90;10.13;;;7.40;56.80;;;;;;5040802;28;20445;-85
2021/12/07 00:15:17;;;;;;;13.47;6.60;;;7.40;56.90;;;;;;5044252;28;20434;-86
2021/12/07 00:17:45;;;;;;;20.37;10.63;;;7.10;56.30;;;;;;5025522;28;20461;-85
2021/12/07 00:20:15;;;;;;;22.00;9.10;;;7.10;57.00;;;;;;5022580;28;20451;-86
2021/12/07 00:22:44;;;;;;;14.47;8.27;;;7.30;57.00;;;;;;5044646;28;20532;-85
2021/12/07 00:25:11;;;;;;;27.97;9.93;;;7.20;55.70;;;;;;5044025;28;20450;-86
2021/12/07 00:27:39;;;;;;;14.80;9.93;;;7.10;56.80;;;;;;5046490;28;20568;-86
2021/12/07 00:30:10;;;;;;;24.63;10.27;;;7.30;57.70;;;;;;5022876;28;20995;-86
2021/12/07 00:32:39;;;;;;;19.07;9.73;;;7.20;57.10;;;;;;5040807;28;20468;-87
2021/12/07 00:35:33;;;;;;;17.23;9.63;;;7.20;57.70;;;;;;5038306;28;20453;-86
2021/12/07 00:38:04;;;;;;;18.00;8.10;;;7.30;57.10;;;;;;5035639;28;20473;-87
2021/12/07 00:40:32;;;;;;;15.17;10.67;;;7.00;57.20;;;;;;5042693;28;20458;-87
2021/12/07 00:43:00;;;;;;;14.13;8.83;;;6.80;56.90;;;;;;5045364;28;20532;-86
2021/12/07 00:45:28;;;;;;;13.07;7.20;;;6.40;57.00;;;;;;5038050;28;20442;-86
2021/12/07 00:47:56;;;;;;;13.03;8.83;;;6.50;58.20;;;;;;5011752;28;20459;-87
2021/12/07 00:50:26;;;;;;;14.53;8.07;;;6.70;58.40;;;;;;5028747;28;20498;-85
2021/12/07 00:52:53;;;;;;;13.23;8.30;;;6.70;58.30;;;;;;5026236;28;20442;-86
2021/12/07 00:55:24;;;;;;;15.23;7.20;;;6.80;58.00;;;;;;5032962;28;21036;-86
2021/12/07 00:57:53;;;;;;;12.43;7.27;;;6.70;57.80;;;;;;5037566;28;20536;-86
2021/12/07 01:00:22;;;;;;;13.57;8.70;;;6.40;58.40;;;;;;5027328;28;20449;-86
2021/12/07 01:02:49;;;;;;;14.60;7.93;;;6.50;58.90;;;;;;5007762;28;20960;-86
2021/12/07 01:05:21;;;;;;;13.17;7.50;;;6.60;58.70;;;;;;5024854;28;20441;-86
2021/12/07 01:08:08;;;;;;;10.90;6.57;;;6.70;58.20;;;;;;5043571;28;20469;-87
2021/12/07 01:24:41;;;;;;;9.03;6.00;;;6.50;60.30;;;;;;5041607;28;20450;-84
2021/12/07 01:27:09;;;;;;;7.47;5.23;;;6.80;59.20;;;;;;5043294;28;20823;-86
2021/12/07 01:29:38;;;;;;;13.70;6.43;;;6.50;59.10;;;;;;5014516;28;20452;-86
2021/12/07 01:32:15;;;;;;;8.03;5.70;;;6.40;59.70;;;;;;5047334;28;20566;-87
2021/12/07 01:37:43;;;;;;;11.87;5.63;;;6.40;60.10;;;;;;5014067;28;20466;-85
2021/12/07 01:43:37;;;;;;;5.87;3.90;;;6.20;60.60;;;;;;4985256;28;20888;-88
2021/12/07 01:46:39;;;;;;;3.80;2.47;;;6.20;60.20;;;;;;5034585;28;20543;-87
2021/12/07 01:52:22;;;;;;;7.40;4.97;;;5.90;62.20;;;;;;5026583;28;21061;-87
2021/12/07 02:00:20;;;;;;;8.47;5.33;;;5.70;62.80;;;;;;5011840;28;20450;-86
2021/12/07 02:02:48;;;;;;;9.30;4.70;;;5.80;62.30;;;;;;5023931;28;20951;-86
2021/12/07 02:05:15;;;;;;;6.83;4.97;;;5.80;62.70;;;;;;5021947;28;20557;-85
2021/12/07 02:07:42;;;;;;;6.87;5.00;;;5.90;62.30;;;;;;5044285;28;20481;-86
2021/12/07 02:10:16;;;;;;;5.03;4.53;;;5.60;62.60;;;;;;5009689;28;20504;-86
2021/12/07 02:12:49;;;;;;;6.43;4.50;;;5.50;63.30;;;;;;5043634;28;20443;-86
2021/12/07 02:15:20;;;;;;;7.03;4.50;;;5.50;64.30;;;;;;5022659;28;21095;-84
2021/12/07 02:17:49;;;;;;;7.83;4.60;;;5.70;63.40;;;;;;5030935;28;20471;-87
2021/12/07 02:20:18;;;;;;;5.80;4.57;;;5.80;62.70;;;;;;5029434;28;20510;-86
2021/12/07 02:22:47;;;;;;;7.43;4.80;;;6.00;62.30;;;;;;5035694;28;20442;-86
2021/12/07 02:25:19;;;;;;;5.80;4.10;;;5.90;62.00;;;;;;5018567;28;20454;-86
2021/12/07 02:27:47;;;;;;;5.43;4.40;;;6.20;61.90;;;;;;5011436;28;20466;-86
2021/12/07 02:30:19;;;;;;;5.43;4.23;;;6.20;61.20;;;;;;5041684;28;20529;-86
2021/12/07 02:32:51;;;;;;;5.40;3.77;;;6.00;61.10;;;;;;5043267;28;20968;-87
2021/12/07 02:35:23;;;;;;;5.30;3.57;;;6.10;61.70;;;;;;5040771;28;20450;-86
2021/12/07 02:37:57;;;;;;;2.80;2.20;;;5.90;62.00;;;;;;5011132;28;21259;-86
2021/12/07 02:40:26;;;;;;;6.97;3.97;;;5.70;62.00;;;;;;5039708;28;20459;-88
2021/12/07 02:42:53;;;;;;;5.23;4.13;;;5.50;63.70;;;;;;5028078;28;20462;-86
2021/12/07 02:45:22;;;;;;;5.70;4.63;;;5.50;63.00;;;;;;5019310;28;20445;-85
2021/12/07 02:47:49;;;;;;;4.07;3.13;;;5.70;63.40;;;;;;5035459;28;20899;-87
2021/12/07 02:50:19;;;;;;;6.30;3.70;;;5.90;63.20;;;;;;5036987;28;20450;-86
2021/12/07 02:52:46;;;;;;;5.53;4.23;;;6.20;62.40;;;;;;5004232;28;20473;-86
2021/12/07 02:55:15;;;;;;;3.73;3.10;;;6.20;61.60;;;;;;5008167;28;20790;-86
2021/12/07 02:57:43;;;;;;;5.13;3.30;;;6.50;61.80;;;;;;5034355;28;20513;-88
2021/12/07 03:00:17;;;;;;;3.50;3.17;;;6.70;60.90;;;;;;5032418;28;20466;-87
2021/12/07 03:02:51;;;;;;;3.40;2.80;;;6.70;59.80;;;;;;5021823;28;20442;-86
2021/12/07 03:05:28;;;;;;;4.33;3.00;;;6.60;60.10;;;;;;5036705;28;20458;-87
2021/12/07 03:08:19;;;;;;;3.13;2.70;;;6.60;60.00;;;;;;5035847;28;20523;-86
2021/12/07 03:27:21;;;;;;;2.60;2.40;;;6.40;61.40;;;;;;5026603;28;20467;-88
2021/12/07 03:29:48;;;;;;;2.93;2.63;;;6.30;60.90;;;;;;5016243;28;20545;-86
2021/12/07 03:32:16;;;;;;;3.27;2.30;;;6.30;62.60;;;;;;5031082;28;20462;-84
2021/12/07 03:34:45;;;;;;;5.17;2.60;;;6.40;61.60;;;;;;5026384;28;20443;-86
2021/12/07 03:37:12;;;;;;;3.40;2.73;;;6.50;61.50;;;;;;5030800;28;20484;-87
2021/12/07 03:39:39;;;;;;;3.60;3.30;;;6.60;61.50;;;;;;5026726;28;20544;-87
2021/12/07 03:42:06;;;;;;;2.67;2.47;;;6.60;61.10;;;;;;5008546;28;20446;-86
2021/12/07 03:44:35;;;;;;;4.27;2.60;;;6.60;61.00;;;;;;5035635;28;21003;-86
2021/12/07 03:47:03;;;;;;;5.20;3.17;;;6.60;61.40;;;;;;5024342;28;20505;-86
2021/12/07 03:49:30;;;;;;;2.63;2.43;;;6.50;61.60;;;;;;5017505;28;20457;-86
2021/12/07 03:51:58;;;;;;;2.73;2.53;;;6.30;62.10;;;;;;5033724;28;20474;-87
2021/12/07 03:54:25;;;;;;;4.43;3.00;;;6.30;63.10;;;;;;5037627;28;20454;-87
2021/12/07 03:56:52;;;;;;;4.13;2.60;;;6.40;63.00;;;;;;5036543;28;20539;-87
2021/12/07 03:59:19;;;;;;;3.43;2.50;;;6.50;62.70;;;;;;5017275;28;20503;-86
2021/12/07 04:01:51;;;;;;;3.03;2.83;;;6.60;62.70;;;;;;5026559;28;20452;-87
2021/12/07 04:04:18;;;;;;;3.53;2.43;;;6.50;62.40;;;;;;5015865;28;20557;-86
2021/12/07 04:06:46;;;;;;;2.67;2.17;;;6.60;62.90;;;;;;5014188;28;20505;-87
2021/12/07 04:09:13;;;;;;;3.73;2.90;;;6.70;63.00;;;;;;5031542;28;20466;-87
2021/12/07 04:11:40;;;;;;;2.10;1.90;;;6.80;62.70;;;;;;5036594;28;20477;-86
2021/12/07 04:14:07;;;;;;;4.90;2.00;;;6.70;62.00;;;;;;5034819;28;20937;-87
2021/12/07 04:16:35;;;;;;;3.20;2.43;;;6.70;62.80;;;;;;5023727;28;20485;-86
2021/12/07 04:19:04;;;;;;;3.40;2.80;;;6.90;62.80;;;;;;5027532;28;20458;-86
2021/12/07 04:21:32;;;;;;;2.83;1.90;;;6.70;63.20;;;;;;5028200;28;20454;-87
2021/12/07 04:23:59;;;;;;;2.97;2.33;;;6.70;63.40;;;;;;5007816;28;20454;-86
2021/12/07 04:26:26;;;;;;;2.57;2.40;;;6.60;63.60;;;;;;5018570;28;20470;-86
2021/12/07 04:28:54;;;;;;;7.87;2.93;;;6.70;63.70;;;;;;5032270;28;20529;-86
2021/12/07 04:31:21;;;;;;;4.57;2.87;;;6.70;64.10;;;;;;5032377;28;20477;-86
2021/12/07 04:33:48;;;;;;;3.43;2.40;;;6.60;64.30;;;;;;5034963;28;20965;-86
2021/12/07 04:36:17;;;;;;;5.70;2.80;;;6.50;64.00;;;;;;5017306;28;20536;-85
2021/12/07 04:38:44;;;;;;;4.10;3.67;;;6.50;65.00;;;;;;5034456;28;20461;-86
2021/12/07 04:41:12;;;;;;;4.23;2.90;;;6.50;65.50;;;;;;5041432;28;20969;-86
2021/12/07 04:43:40;;;;;;;15.97;6.60;;;6.50;65.40;;;;;;5019211;28;20450;-86
2021/12/07 04:46:13;;;;;;;6.70;4.20;;;6.50;65.50;;;;;;5034412;28;21176;-86
2021/12/07 04:59:40;;;;;;;3.53;3.17;;;6.80;65.80;;;;;;5031156;28;20465;-86
2021/12/07 05:02:08;;;;;;;5.70;2.77;;;6.80;65.30;;;;;;5013880;28;20549;-86
2021/12/07 05:04:37;;;;;;;3.50;2.90;;;6.80;65.50;;;;;;5022169;28;20461;-86
2021/12/07 05:07:11;;;;;;;5.37;1.93;;;6.90;65.30;;;;;;5004093;28;20477;-86
2021/12/07 05:10:07;;;;;;;5.70;2.90;;;6.80;65.40;;;;;;5030424;28;20454;-87
2021/12/07 05:12:39;;;;;;;5.20;2.87;;;6.90;65.50;;;;;;5022896;28;20532;-87
2021/12/07 05:15:17;;;;;;;3.60;2.93;;;6.90;65.30;;;;;;5031971;28;20449;-86
2021/12/07 05:18:01;;;;;;;5.00;3.00;;;7.00;65.20;;;;;;5031917;28;20517;-86
2021/12/07 05:34:31;;;;;;;3.63;2.10;;;6.70;65.50;;;;;;4999599;28;20661;-86
2021/12/07 05:34:50;;;;;;;3.33;2.27;;;6.80;65.60;;;;;;5033232;28;20453;-86
2021/12/07 05:40:08;;;;;;;6.30;3.83;;;6.90;65.30;;;;;;5034754;28;20457;-87
2021/12/07 05:42:36;;;;;;;6.40;2.73;;;6.90;65.80;;;;;;5036036;28;20454;-86
2021/12/07 05:45:03;;;;;;;3.13;2.07;;;6.90;65.60;;;;;;5033381;28;20461;-86
2021/12/07 05:47:30;;;;;;;5.67;2.90;;;6.80;65.80;;;;;;5033666;28;20482;-86
2021/12/07 05:49:57;;;;;;;8.53;2.37;;;6.90;65.80;;;;;;5031806;28;20488;-86
2021/12/07 05:52:24;;;;;;;5.27;2.23;;;6.80;65.70;;;;;;5034149;28;21223;-86
2021/12/07 05:54:51;;;;;;;1.80;1.70;;;6.80;66.00;;;;;;5032297;28;20466;-85
2021/12/07 05:57:20;;;;;;;3.63;2.33;;;6.90;65.50;;;;;;5033634;28;20964;-86
2021/12/07 05:59:47;;;;;;;5.60;2.07;;;6.90;65.10;;;;;;5039857;28;20452;-86
2021/12/07 06:02:14;;;;;;;4.60;2.60;;;6.80;65.40;;;;;;5042996;28;20465;-85
2021/12/07 06:04:41;;;;;;;5.07;2.20;;;6.80;65.40;;;;;;5019253;28;20981;-86
2021/12/07 06:07:10;;;;;;;3.30;2.33;;;7.10;65.60;;;;;;5032839;28;20482;-85
2021/12/07 06:09:37;;;;;;;4.77;2.53;;;7.20;64.90;;;;;;5035706;28;20480;-86
2021/12/07 06:12:05;;;;;;;1.87;1.67;;;7.20;64.00;;;;;;5037083;28;21004;-86
2021/12/07 06:14:36;;;;;;;2.80;1.90;;;7.30;64.00;;;;;;5035313;28;20862;-86
2021/12/07 06:17:03;;;;;;;6.93;2.00;;;7.20;64.20;;;;;;5052122;28;20485;-85
2021/12/07 06:19:30;;;;;;;1.87;1.70;;;7.40;64.20;;;;;;5035833;28;20457;-85
2021/12/07 06:21:57;;;;;;;4.63;2.30;;;7.40;63.90;;;;;;5006161;28;20446;-86
2021/12/07 06:24:24;;;;;;;5.90;2.20;;;7.40;64.20;;;;;;5036850;28;20511;-85
2021/12/07 06:26:51;;;;;;;2.17;1.90;;;7.40;64.10;;;;;;5034465;28;21055;-87
2021/12/07 06:29:18;;;;;;;3.80;2.17;;;7.40;63.70;;;;;;5049296;28;20453;-86
2021/12/07 06:31:46;;;;;;;5.43;3.37;;;7.30;64.10;;;;;;5033737;28;20508;-85
2021/12/07 06:34:13;;;;;;;3.37;1.47;;;7.30;64.30;;;;;;5035855;28;20456;-86
2021/12/07 06:36:40;;;;;;;4.63;1.90;;;7.40;64.10;;;;;;5035982;28;20911;-83
2021/12/07 06:39:09;;;;;;;4.37;1.93;;;7.50;64.10;;;;;;5031297;28;21321;-85
2021/12/07 06:41:36;;;;;;;4.70;2.30;;;7.50;63.70;;;;;;5035484;28;20519;-86
2021/12/07 06:44:05;;;;;;;3.80;2.40;;;7.50;63.50;;;;;;5037841;28;20465;-85
2021/12/07 06:46:31;;;;;;;6.97;2.20;;;7.40;63.70;;;;;;5042581;28;20481;-86
2021/12/07 06:49:00;;;;;;;4.00;2.57;;;7.40;64.10;;;;;;5017678;28;20454;-88
2021/12/07 06:51:28;;;;;;;5.10;3.57;;;7.30;63.80;;;;;;5031559;28;20825;-85
2021/12/07 06:53:55;;;;;;;2.17;1.97;;;7.20;64.10;;;;;;5020888;28;20997;-85
2021/12/07 06:56:22;;;;;;;2.50;2.10;;;7.20;64.10;;;;;;5030418;28;20504;-85
2021/12/07 06:58:49;;;;;;;3.40;2.40;;;7.30;64.20;;;;;;5009455;28;20465;-85
2021/12/07 07:01:18;;;;;;;6.23;3.70;;;7.20;64.00;;;;;;5034990;28;20969;-84
2021/12/07 07:03:45;;;;;;;9.20;3.53;;;7.30;63.70;;;;;;5022629;28;20453;-87
2021/12/07 07:06:13;;;;;;;7.70;2.50;;;7.30;64.10;;;;;;5048500;28;20466;-86
2021/12/07 07:08:40;;;;;;;8.00;2.67;;;7.30;64.00;;;;;;5033253;28;20836;-85
2021/12/07 07:11:07;;;;;;;5.07;2.73;;;7.50;63.60;;;;;;5034038;28;20447;-85
2021/12/07 07:13:34;;;;;;;4.87;2.83;;;7.50;63.40;;;;;;5036939;28;20493;-86
2021/12/07 07:16:01;;;;;;;5.23;3.97;;;7.50;63.40;;;;;;5031191;28;20516;-86
2021/12/07 07:18:29;;;;;;;7.00;3.27;;;7.50;63.10;;;;;;5019023;28;20449;-86
2021/12/07 07:20:56;;;;;;;2.80;2.23;;;7.40;63.40;;;;;;5034626;28;20450;-86
2021/12/07 07:23:25;;;;;;;5.53;3.00;;;7.40;63.70;;;;;;5038613;28;20482;-86
2021/12/07 07:25:55;;;;;;;8.90;3.00;;;7.30;63.90;;;;;;5030921;28;21311;-87
2021/12/07 07:28:23;;;;;;;5.93;3.57;;;7.40;63.80;;;;;;5032473;28;20512;-86
2021/12/07 07:30:50;;;;;;;7.53;3.10;;;7.40;64.00;;;;;;5031761;28;20857;-87
2021/12/07 07:33:17;;;;;;;7.73;3.50;;;7.40;63.40;;;;;;5023706;28;20470;-86
2021/12/07 07:35:44;;;;;;;6.40;3.10;;;7.50;63.50;;;;;;5030958;28;20950;-86
2021/12/07 07:38:11;;;;;;;14.97;4.93;;;7.70;63.50;;;;;;5033961;28;21261;-86
2021/12/07 07:40:40;;;;;;;2.30;2.10;;;7.90;62.60;;;;;;5031339;28;20452;-87
2021/12/07 07:43:06;;;;;;;9.97;4.60;;;7.70;62.40;;;;;;5006988;28;20964;-86
2021/12/07 07:45:39;;;;;;;10.80;5.43;;;7.70;62.60;;;;;;5006168;28;20454;-87
2021/12/07 07:48:06;;;;;;;7.60;3.30;;;7.90;62.70;;;;;;5038016;28;20600;-87
2021/12/07 07:50:33;;;;;;;4.43;3.60;;;7.80;62.40;;;;;;5032101;28;20461;-86
2021/12/07 07:53:00;;;;;;;8.67;2.40;;;7.80;63.00;;;;;;5027637;28;20859;-86
2021/12/07 07:55:27;;;;;;;7.50;3.30;;;7.90;62.20;;;;;;5019110;28;20456;-85
2021/12/07 07:57:56;;;;;;;8.60;5.03;;;7.90;61.60;;;;;;5015436;28;20486;-86
2021/12/07 08:00:23;;;;;;;10.23;5.10;;;7.80;62.00;;;;;;5033083;28;20988;-86
2021/12/07 08:02:52;;;;;;;15.47;6.73;;;7.90;62.30;;;;;;5032336;28;20454;-86
2021/12/07 08:05:19;;;;;;;18.63;6.37;;;7.80;61.90;;;;;;5034071;28;20460;-86
2021/12/07 08:07:47;;;;;;;24.27;10.87;;;7.80;61.90;;;;;;5029718;28;20480;-87
2021/12/07 08:10:16;;;;;;;20.03;7.13;;;7.80;62.70;;;;;;5016906;28;20500;-85
2021/12/07 08:12:43;;;;;;;23.53;9.43;;;7.70;62.50;;;;;;5034626;28;20481;-86
2021/12/07 08:15:12;;;;;;;20.30;9.43;;;7.80;62.70;;;;;;5019892;28;20466;-86
2021/12/07 08:17:39;;;;;;;11.10;5.87;;;7.90;62.20;;;;;;5034084;28;20473;-86
2021/12/07 08:20:07;;;;;;;12.93;4.90;;;8.00;61.80;;;;;;5031963;28;20817;-86
2021/12/07 08:22:34;;;;;;;6.33;4.53;;;7.50;61.70;;;;;;5017943;28;20456;-85
2021/12/07 08:25:01;;;;;;;7.03;4.63;;;7.50;62.40;;;;;;5032939;28;20462;-86
2021/12/07 08:27:28;;;;;;;4.23;2.30;;;7.70;62.30;;;;;;5030733;28;20469;-86
2021/12/07 08:29:56;;;;;;;16.27;7.00;;;7.90;61.70;;;;;;5033130;28;20453;-86
2021/12/07 08:32:24;;;;;;;24.47;10.17;;;8.00;61.90;;;;;;5030331;28;20461;-86
2021/12/07 08:34:51;;;;;;;11.63;6.17;;;8.20;61.50;;;;;;5018999;28;20795;-86
2021/12/07 08:37:18;;;;;;;3.60;2.83;;;8.30;60.90;;;;;;5020723;28;20993;-88
2021/12/07 08:39:45;;;;;;;15.07;5.83;;;8.30;60.40;;;;;;5021662;28;20458;-86
2021/12/07 08:42:12;;;;;;;13.63;6.30;;;8.50;60.30;;;;;;5017672;28;20461;-87
2021/12/07 08:44:39;;;;;;;4.60;2.90;;;8.60;59.90;;;;;;5004589;28;20480;-86
2021/12/07 08:47:07;;;;;;;10.33;4.63;;;8.50;59.30;;;;;;5033019;28;20544;-87
2021/12/07 08:49:35;;;;;;;10.00;5.10;;;8.50;59.60;;;;;;5032666;28;20473;-85
2021/12/07 08:52:03;;;;;;;9.77;6.83;;;8.40;59.90;;;;;;5033476;28;20446;-85
2021/12/07 08:59:36;;;;;;;11.43;5.40;;;8.20;60.00;;;;;;5031663;28;20481;-86
2021/12/07 09:00:04;;;;;;;2.63;2.00;;;8.60;60.20;;;;;;5029995;28;20458;-87
2021/12/07 09:02:33;;;;;;;4.77;3.03;;;8.40;59.60;;;;;;5033840;28;21151;-86
2021/12/07 09:05:01;;;;;;;5.47;2.40;;;8.40;60.00;;;;;;5030405;28;20465;-85
2021/12/07 09:07:28;;;;;;;6.43;2.20;;;8.20;59.70;;;;;;5033370;28;20498;-86
2021/12/07 09:09:55;;;;;;;3.13;2.07;;;8.40;59.70;;;;;;5031805;28;20457;-86
2021/12/07 09:12:22;;;;;;;2.80;1.57;;;8.30;59.50;;;;;;5031742;28;20489;-86
2021/12/07 09:14:52;;;;;;;6.10;2.07;;;8.30;59.70;;;;;;5038747;28;20532;-85
2021/12/07 09:17:19;;;;;;;3.50;2.20;;;8.40;59.70;;;;;;5030792;28;20469;-86
2021/12/07 09:19:46;;;;;;;4.50;2.70;;;8.50;59.70;;;;;;5037316;28;20454;-87
2021/12/07 09:22:15;;;;;;;26.40;13.40;;;8.70;59.50;;;;;;5034504;28;20487;-86
2021/12/07 09:24:42;;;;;;;3.60;3.03;;;8.60;58.80;;;;;;5024125;28;20441;-87
2021/12/07 09:27:09;;;;;;;2.47;2.27;;;8.50;58.90;;;;;;5034859;28;20473;-86
2021/12/07 09:29:37;;;;;;;3.20;2.40;;;8.40;58.80;;;;;;5033089;28;20466;-86
2021/12/07 09:32:04;;;;;;;4.67;2.80;;;8.40;58.90;;;;;;5033610;28;20457;-86
2021/12/07 09:34:32;;;;;;;4.30;2.90;;;8.30;59.30;;;;;;5017520;28;20471;-82
2021/12/07 09:36:59;;;;;;;7.33;2.60;;;8.50;59.30;;;;;;5034557;28;20485;-86
2021/12/07 09:39:27;;;;;;;4.93;2.00;;;8.60;59.50;;;;;;5018949;28;20454;-86
2021/12/07 09:41:55;;;;;;;4.63;1.83;;;8.50;59.20;;;;;;5039389;28;20524;-87
2021/12/07 09:44:23;;;;;;;6.70;2.93;;;8.60;58.80;;;;;;5036221;28;20446;-87
2021/12/07 09:46:50;;;;;;;10.43;2.90;;;8.50;59.70;;;;;;5038506;28;20569;-86
2021/12/07 09:49:17;;;;;;;3.40;2.30;;;8.60;59.10;;;;;;5037160;28;21247;-86
2021/12/07 09:51:45;;;;;;;5.70;2.60;;;8.50;58.80;;;;;;5037450;28;20465;-86
2021/12/07 09:54:12;;;;;;;3.13;2.23;;;8.60;59.30;;;;;;5035649;28;20486;-86
2021/12/07 09:56:41;;;;;;;5.03;3.10;;;8.70;59.00;;;;;;5020051;28;20475;-87
2021/12/07 09:59:10;;;;;;;4.83;2.40;;;8.50;58.60;;;;;;5010096;28;20453;-86
2021/12/07 10:01:39;;;;;;;2.70;2.07;;;8.30;59.10;;;;;;5034257;28;20813;-86
2021/12/07 10:04:06;;;;;;;2.47;1.80;;;8.40;59.10;;;;;;5033368;28;20458;-86
2021/12/07 10:06:33;;;;;;;6.70;2.60;;;8.60;58.90;;;;;;5027257;28;20485;-86
2021/12/07 10:09:01;;;;;;;4.33;2.37;;;8.80;59.00;;;;;;5027990;28;20792;-86
2021/12/07 10:11:28;;;;;;;2.90;2.47;;;8.80;58.70;;;;;;5038780;28;20453;-86
2021/12/07 10:13:57;;;;;;;5.90;3.73;;;9.00;58.10;;;;;;5027003;28;21162;-86
2021/12/07 10:16:26;;;;;;;6.60;3.00;;;9.00;57.90;;;;;;5036325;28;20520;-86
2021/12/07 10:18:54;;;;;;;8.10;3.47;;;9.00;57.50;;;;;;5021230;28;20824;-86
2021/12/07 10:21:25;;;;;;;5.83;3.90;;;9.00;57.80;;;;;;5024912;28;20453;-84
2021/12/07 10:23:54;;;;;;;9.80;7.30;;;9.00;57.70;;;;;;5038915;28;20446;-86
2021/12/07 10:26:24;;;;;;;7.20;2.70;;;9.10;57.70;;;;;;5037866;28;21000;-86
2021/12/07 10:28:53;;;;;;;8.70;5.90;;;9.00;57.20;;;;;;5036274;28;20500;-86
2021/12/07 10:31:34;;;;;;;7.40;5.80;;;8.90;57.50;;;;;;5035405;28;20821;-85
2021/12/07 10:34:03;;;;;;;9.33;4.77;;;8.90;57.00;;;;;;5033799;28;20481;-86
2021/12/07 10:36:33;;;;;;;5.30;3.87;;;8.90;57.10;;;;;;5032953;28;20478;-86
2021/12/07 10:39:06;;;;;;;8.03;3.93;;;8.90;57.20;;;;;;5033448;28;20465;-85
2021/12/07 10:41:34;;;;;;;17.43;7.83;;;8.80;56.70;;;;;;5033819;28;20469;-86
2021/12/07 10:44:05;;;;;;;5.90;2.47;;;9.00;57.10;;;;;;5034413;28;20461;-86
2021/12/07 10:46:41;;;;;;;14.57;6.90;;;8.70;56.70;;;;;;5026744;28;20497;-84
2021/12/07 10:49:41;;;;;;;19.67;5.33;;;8.70;57.60;;;;;;5034666;28;20449;-86
2021/12/07 10:52:14;;;;;;;12.80;6.10;;;8.60;57.60;;;;;;5029750;28;20455;-86
2021/12/07 10:54:49;;;;;;;14.53;4.40;;;8.50;57.50;;;;;;5021468;28;20541;-86
2021/12/07 10:57:19;;;;;;;13.43;6.00;;;8.70;57.80;;;;;;5019124;28;20501;-86
2021/12/07 10:59:53;;;;;;;7.73;5.07;;;8.90;57.30;;;;;;5036369;28;20463;-85
2021/12/07 11:02:22;;;;;;;10.87;6.00;;;9.00;56.90;;;;;;5033306;28;20461;-86
2021/12/07 11:04:49;;;;;;;5.33;3.27;;;9.00;56.60;;;;;;5032475;28;20487;-86
2021/12/07 11:07:19;;;;;;;8.67;5.07;;;9.00;56.50;;;;;;5032447;28;20833;-84
2021/12/07 11:10:00;;;;;;;6.20;4.03;;;8.90;56.90;;;;;;5034493;28;20465;-86
2021/12/07 11:12:33;;;;;;;8.17;5.40;;;8.80;57.10;;;;;;5035294;28;20449;-86
2021/12/07 11:15:01;;;;;;;8.77;3.40;;;8.70;57.50;;;;;;5040505;28;20505;-86
2021/12/07 11:17:31;;;;;;;7.47;4.50;;;8.70;57.50;;;;;;5026176;28;20459;-85
2021/12/07 11:19:59;;;;;;;10.37;4.60;;;8.70;57.70;;;;;;5035045;28;21176;-86
2021/12/07 11:22:30;;;;;;;8.80;3.80;;;8.70;57.50;;;;;;5035794;28;20864;-87
2021/12/07 11:24:58;;;;;;;5.07;3.33;;;8.70;56.80;;;;;;5036930;28;20465;-86
2021/12/07 11:30:17;;;;;;;8.87;4.80;;;8.70;57.10;;;;;;5020906;28;20510;-86
2021/12/07 11:32:49;;;;;;;11.13;4.37;;;8.70;57.30;;;;;;5036435;28;20460;-86
2021/12/07 11:35:21;;;;;;;5.57;3.17;;;8.80;57.40;;;;;;5000970;28;20956;-86
2021/12/07 11:37:49;;;;;;;6.50;4.67;;;8.70;56.50;;;;;;5033648;28;20485;-86
2021/12/07 11:40:22;;;;;;;12.83;3.97;;;8.80;57.10;;;;;;5040403;28;20474;-85
2021/12/07 11:42:49;;;;;;;5.37;3.47;;;8.80;56.80;;;;;;5034611;28;20461;-85
2021/12/07 11:45:18;;;;;;;4.03;2.10;;;8.80;57.00;;;;;;5033448;28;20466;-86
2021/12/07 11:47:49;;;;;;;5.63;3.43;;;8.90;56.30;;;;;;5032245;28;20482;-86
2021/12/07 11:50:31;;;;;;;2.60;2.40;;;8.80;56.30;;;;;;5036887;28;20465;-86
2021/12/07 11:53:02;;;;;;;6.80;4.20;;;8.90;55.90;;;;;;5016135;28;20461;-85
2021/12/07 11:55:31;;;;;;;4.40;2.53;;;8.90;56.00;;;;;;5035436;28;20473;-86
2021/12/07 11:57:58;;;;;;;2.40;2.20;;;9.10;55.80;;;;;;5022709;28;20585;-86
2021/12/07 12:00:28;;;;;;;8.60;3.50;;;9.20;55.10;;;;;;5034003;28;20463;-86
2021/12/07 12:02:57;;;;;;;10.50;3.83;;;9.30;55.60;;;;;;5035389;28;20640;-86
2021/12/07 12:05:23;;;;;;;7.93;2.87;;;9.40;55.00;;;;;;5004379;28;20803;-86
2021/12/07 12:07:51;;;;;;;4.30;2.40;;;9.60;55.00;;;;;;5036015;28;20489;-86
2021/12/07 12:10:20;;;;;;;4.27;2.63;;;9.70;54.60;;;;;;5032315;28;21003;-86
2021/12/07 12:13:02;;;;;;;6.23;3.17;;;9.60;54.90;;;;;;5035519;28;20531;-86
2021/12/07 12:15:42;;;;;;;7.50;2.17;;;9.80;54.90;;;;;;5034183;28;20481;-86
2021/12/07 12:18:18;;;;;;;5.20;4.20;;;9.70;54.20;;;;;;5036947;28;20493;-84
2021/12/07 12:20:58;;;;;;;5.53;2.80;;;9.70;55.10;;;;;;5036876;28;20551;-85
2021/12/07 12:23:34;;;;;;;2.40;2.00;;;9.90;54.30;;;;;;5036098;28;21007;-86
2021/12/07 12:26:05;;;;;;;5.80;3.20;;;9.90;53.90;;;;;;5017510;28;20454;-85
2021/12/07 12:28:37;;;;;;;5.57;2.40;;;10.00;52.70;;;;;;5030988;28;20968;-85
2021/12/07 12:31:06;;;;;;;7.33;3.00;;;10.00;51.90;;;;;;5021924;28;20462;-86
2021/12/07 12:33:51;;;;;;;8.17;2.73;;;10.10;52.60;;;;;;5015086;28;20569;-86
2021/12/07 12:36:19;;;;;;;6.77;2.80;;;10.20;51.90;;;;;;5042618;28;20445;-85
2021/12/07 12:38:49;;;;;;;9.80;2.97;;;10.30;51.80;;;;;;5037605;28;20465;-86
2021/12/07 12:41:17;;;;;;;3.53;3.20;;;10.50;51.40;;;;;;5031281;28;20466;-86
2021/12/07 12:43:50;;;;;;;5.50;2.63;;;10.70;51.50;;;;;;5031550;28;20547;-86
2021/12/07 12:46:20;;;;;;;7.47;4.53;;;10.70;50.20;;;;;;5021103;28;20470;-84
2021/12/07 12:48:51;;;;;;;7.60;4.53;;;10.80;50.00;;;;;;5024626;28;20469;-86
2021/12/07 12:51:19;;;;;;;3.83;2.60;;;10.90;49.60;;;;;;5031622;28;20473;-85
2021/12/07 12:53:48;;;;;;;6.03;4.00;;;11.00;49.70;;;;;;5033089;28;20442;-86
2021/12/07 12:56:17;;;;;;;9.07;6.03;;;10.90;49.60;;;;;;5032712;28;20462;-86
2021/12/07 12:58:46;;;;;;;7.63;5.37;;;10.90;49.70;;;;;;5033308;28;21000;-86
2021/12/07 13:01:19;;;;;;;3.67;2.43;;;10.50;49.80;;;;;;5034312;28;20963;-85
2021/12/07 13:03:59;;;;;;;2.30;2.07;;;10.50;50.40;;;;;;5040864;28;20454;-86
2021/12/07 13:06:50;;;;;;;3.37;1.93;;;10.30;50.20;;;;;;5035853;28;20989;-85
2021/12/07 13:09:43;;;;;;;4.93;2.53;;;10.30;50.10;;;;;;5031549;28;21170;-86
2021/12/07 13:12:14;;;;;;;5.20;2.83;;;10.60;50.10;;;;;;5035107;28;20457;-86
2021/12/07 13:14:59;;;;;;;4.03;1.70;;;11.00;49.70;;;;;;5056601;28;20476;-86
2021/12/07 13:17:30;;;;;;;2.80;2.50;;;11.20;48.60;;;;;;5035468;28;20517;-86
2021/12/07 13:20:16;;;;;;;3.40;2.00;;;11.30;48.20;;;;;;5036538;28;20499;-85
2021/12/07 13:22:45;;;;;;;2.13;1.93;;;11.40;48.20;;;;;;5038761;28;20458;-85
2021/12/07 13:25:17;;;;;;;2.70;1.80;;;11.40;49.00;;;;;;5059149;28;20473;-86
2021/12/07 13:28:10;;;;;;;3.10;1.60;;;11.30;48.90;;;;;;5033967;28;20470;-86
2021/12/07 13:30:46;;;;;;;2.20;1.93;;;11.20;49.30;;;;;;5059452;28;20454;-86
2021/12/07 13:33:16;;;;;;;8.00;1.73;;;11.00;48.90;;;;;;5054174;28;20457;-86
2021/12/07 13:35:46;;;;;;;8.87;2.30;;;10.80;48.80;;;;;;5020818;28;20471;-85
2021/12/07 13:38:18;;;;;;;2.90;1.50;;;10.60;48.80;;;;;;5040574;28;20469;-86
2021/12/07 13:40:45;;;;;;;4.87;1.93;;;10.50;49.30;;;;;;5012745;28;20539;-85
2021/12/07 13:43:30;;;;;;;1.93;1.60;;;10.40;49.00;;;;;;5036858;28;21172;-85
2021/12/07 13:46:11;;;;;;;5.83;1.70;;;10.20;48.90;;;;;;5046546;28;20450;-86
2021/12/07 13:48:39;;;;;;;6.00;2.57;;;10.20;49.60;;;;;;5022974;28;20448;-86
2021/12/07 13:51:08;;;;;;;3.80;2.23;;;10.20;50.20;;;;;;5028410;28;20467;-85
2021/12/07 13:53:35;;;;;;;2.90;2.60;;;10.00;49.50;;;;;;5043774;28;20473;-86
2021/12/07 13:56:03;;;;;;;8.00;2.20;;;10.00;50.20;;;;;;5024197;28;20469;-86
2021/12/07 13:58:33;;;;;;;8.00;2.07;;;10.10;50.20;;;;;;5058478;28;20452;-86
2021/12/07 14:01:03;;;;;;;3.00;2.10;;;10.00;49.90;;;;;;5045943;28;20449;-85
2021/12/07 14:03:30;;;;;;;5.40;2.50;;;10.10;50.20;;;;;;5025579;28;20947;-86
2021/12/07 14:05:57;;;;;;;3.47;1.80;;;10.30;50.70;;;;;;5055215;28;20448;-85
2021/12/07 14:08:28;;;;;;;1.43;1.33;;;10.10;49.30;;;;;;5041506;28;20491;-86
2021/12/07 14:10:56;;;;;;;6.43;2.20;;;9.90;49.30;;;;;;5023234;28;20444;-86
2021/12/07 14:13:23;;;;;;;4.80;2.03;;;10.00;49.80;;;;;;5038840;28;20464;-85
2021/12/07 14:15:51;;;;;;;2.40;2.20;;;10.00;50.30;;;;;;5064129;28;20477;-85
2021/12/07 14:18:22;;;;;;;7.13;4.00;;;10.10;49.30;;;;;;5046558;28;20488;-84
2021/12/07 14:20:53;;;;;;;4.50;2.70;;;10.10;49.20;;;;;;5052619;28;21071;-86
2021/12/07 14:23:24;;;;;;;2.50;2.30;;;10.20;49.30;;;;;;5065663;28;20810;-85